Time;durP1;ratioP1;P1;durP2;ratioP2;P2;SDS_P1;SDS_P2;PMS_P1;PMS_P2;Temp;Humidity;BMP_temperature;BMP_pressure;BME280_temperature;BME280_humidity;BME280_pressure;Samples;Min_cycle;Max_cycle;Signal;HPM_P1;HPM_P2
2023/07/02 00:00:24;;;;;;;;;;;;;;;24.09;66.78;99963.66;7399993;19;1463;-55
2023/07/02 00:02:53;;;;;;;;;;;;;;;24.11;66.83;99961.59;7402080;19;1702;-55
2023/07/02 00:05:21;;;;;;;;;;;;;;;24.11;66.75;99958.06;7400284;19;1838;-54
2023/07/02 00:07:52;;;;;;;;;;;;;;;24.14;66.89;99969.34;7403644;19;1043;-55
2023/07/02 00:10:20;;;;;;;;;;;;;;;24.11;66.86;99967.00;7402970;19;1818;-55
2023/07/02 00:12:49;;;;;;;;;;;;;;;24.07;66.93;99971.13;7401887;19;1517;-55
2023/07/02 00:15:17;;;;;;;;;;;;;;;24.10;66.96;99959.94;7401875;19;1842;-55
2023/07/02 00:17:46;;;;;;;;;;;;;;;24.07;66.56;99946.81;7401963;19;1844;-55
2023/07/02 00:20:17;;;;;;;;;;;;;;;24.11;66.68;99955.38;7402439;19;1296;-55
2023/07/02 00:22:46;;;;;;;;;;;;;;;24.10;66.68;99968.06;7402895;19;1025;-55
2023/07/02 00:25:18;;;;;;;;;;;;;;;24.15;66.42;99968.34;7403181;19;983;-55
2023/07/02 00:27:46;;;;;;;;;;;;;;;24.11;66.76;99972.41;7401723;19;1803;-55
2023/07/02 00:30:14;;;;;;;;;;;;;;;24.11;66.71;99964.31;7402233;19;1591;-55
2023/07/02 00:32:43;;;;;;;;;;;;;;;24.11;66.67;99969.72;7401426;19;1559;-55
2023/07/02 00:35:11;;;;;;;;;;;;;;;24.15;66.63;99976.44;7402109;19;1805;-54
2023/07/02 00:37:39;;;;;;;;;;;;;;;24.12;66.88;99962.47;7400658;19;1997;-55
2023/07/02 00:40:09;;;;;;;;;;;;;;;24.10;66.61;99956.41;7400738;19;1398;-55
2023/07/02 00:42:39;;;;;;;;;;;;;;;24.09;66.99;99969.06;7399902;19;1726;-55
2023/07/02 00:45:09;;;;;;;;;;;;;;;24.12;66.89;99968.69;7399692;19;1418;-55
2023/07/02 00:47:37;;;;;;;;;;;;;;;24.09;66.72;99944.75;7400134;19;2089;-54
2023/07/02 00:50:09;;;;;;;;;;;;;;;24.14;66.73;99969.34;7399348;19;1726;-55
2023/07/02 00:52:37;;;;;;;;;;;;;;;24.06;67.12;99961.34;7402225;19;955;-55
2023/07/02 00:55:06;;;;;;;;;;;;;;;24.09;66.86;99957.44;7400980;19;1616;-54
2023/07/02 00:57:34;;;;;;;;;;;;;;;24.05;66.93;99938.06;7397596;19;1871;-54
2023/07/02 01:00:06;;;;;;;;;;;;;;;24.15;66.85;99957.53;7401307;19;1730;-54
2023/07/02 01:02:34;;;;;;;;;;;;;;;23.63;66.60;99854.03;7401603;19;1030;-54
2023/07/02 01:05:03;;;;;;;;;;;;;;;24.12;67.06;99947.09;7399890;19;2183;-54
2023/07/02 01:07:31;;;;;;;;;;;;;;;24.09;66.93;99970.94;7400826;19;1521;-55
2023/07/02 01:09:59;;;;;;;;;;;;;;;24.01;66.95;99961.06;7401048;19;1790;-55
2023/07/02 01:12:28;;;;;;;;;;;;;;;24.06;67.02;99961.34;7400892;19;1402;-55
2023/07/02 01:14:59;;;;;;;;;;;;;;;24.10;67.14;99959.94;7400238;19;1711;-55
2023/07/02 01:17:37;;;;;;;;;;;;;;;24.04;66.96;99939.09;7399863;19;1858;-55
2023/07/02 01:20:09;;;;;;;;;;;;;;;24.07;66.77;99933.31;7399454;19;1928;-55
2023/07/02 01:22:38;;;;;;;;;;;;;;;24.06;67.05;99944.31;7400881;19;1053;-55
2023/07/02 01:25:08;;;;;;;;;;;;;;;24.08;66.97;99939.56;7400364;19;1869;-54
2023/07/02 01:27:37;;;;;;;;;;;;;;;24.10;67.16;99929.41;7399730;19;1858;-57
2023/07/02 01:30:09;;;;;;;;;;;;;;;24.11;66.73;99950.81;7399724;19;1844;-55
2023/07/02 01:32:37;;;;;;;;;;;;;;;24.12;66.88;99940.84;7400934;19;1747;-55
2023/07/02 01:35:09;;;;;;;;;;;;;;;24.07;66.81;99927.91;7399897;19;1829;-55
2023/07/02 01:37:37;;;;;;;;;;;;;;;24.10;66.63;99938.34;7399303;19;1844;-55
2023/07/02 01:40:06;;;;;;;;;;;;;;;24.07;66.65;99933.31;7399091;19;1410;-55
2023/07/02 01:42:35;;;;;;;;;;;;;;;24.10;67.16;99932.94;7399414;19;1755;-55
2023/07/02 01:45:03;;;;;;;;;;;;;;;24.13;66.99;99937.97;7397670;19;1750;-54
2023/07/02 01:47:31;;;;;;;;;;;;;;;24.08;66.99;99943.09;7400508;19;1813;-55
2023/07/02 01:50:00;;;;;;;;;;;;;;;24.07;66.84;99930.59;7399515;19;1824;-54
2023/07/02 01:52:32;;;;;;;;;;;;;;;24.09;66.99;99930.41;7399723;19;1051;-54
2023/07/02 01:55:01;;;;;;;;;;;;;;;24.08;67.02;99937.69;7396002;19;1806;-55
2023/07/02 01:57:30;;;;;;;;;;;;;;;24.07;66.90;99944.09;7398975;19;1522;-55
2023/07/02 01:59:58;;;;;;;;;;;;;;;24.08;66.77;99921.47;7399013;19;1896;-54
2023/07/02 02:02:27;;;;;;;;;;;;;;;24.06;67.18;99939.75;7399563;19;1089;-55
2023/07/02 02:04:56;;;;;;;;;;;;;;;24.06;66.94;99925.41;7397479;19;2084;-55
2023/07/02 02:07:25;;;;;;;;;;;;;;;24.05;66.81;99940.75;7398475;19;1470;-55
2023/07/02 02:09:56;;;;;;;;;;;;;;;24.11;66.74;99945.41;7397545;19;1538;-55
2023/07/02 02:12:24;;;;;;;;;;;;;;;24.08;67.04;99947.66;7399348;19;1790;-55
2023/07/02 02:14:53;;;;;;;;;;;;;;;24.08;66.93;99955.78;7397937;19;1473;-54
2023/07/02 02:17:21;;;;;;;;;;;;;;;24.07;66.75;99949.50;7398350;19;1312;-54
2023/07/02 02:19:50;;;;;;;;;;;;;;;24.04;66.80;99931.00;7395736;19;1848;-55
2023/07/02 02:22:18;;;;;;;;;;;;;;;24.06;67.02;99937.03;7397380;19;1132;-54
2023/07/02 02:24:46;;;;;;;;;;;;;;;24.07;67.22;99927.91;7397802;19;1991;-55
2023/07/02 02:27:17;;;;;;;;;;;;;;;24.07;67.08;99927.91;7396719;19;1727;-54
2023/07/02 02:29:45;;;;;;;;;;;;;;;24.09;66.86;99943.94;7398573;19;1814;-54
2023/07/02 02:32:14;;;;;;;;;;;;;;;24.12;67.06;99936.28;7398038;19;1716;-54
2023/07/02 02:34:42;;;;;;;;;;;;;;;24.10;66.92;99938.34;7397729;19;1723;-57
2023/07/02 02:37:11;;;;;;;;;;;;;;;24.11;66.89;99933.75;7395380;19;1924;-55
2023/07/02 02:39:39;;;;;;;;;;;;;;;24.05;66.70;99923.72;7394905;19;1853;-54
2023/07/02 02:42:07;;;;;;;;;;;;;;;24.08;66.87;99934.16;7395764;19;1656;-54
2023/07/02 02:44:38;;;;;;;;;;;;;;;24.12;66.82;99941.69;7397824;19;1328;-54
2023/07/02 02:47:07;;;;;;;;;;;;;;;24.07;66.91;99933.31;7397034;19;1809;-55
2023/07/02 02:49:35;;;;;;;;;;;;;;;24.04;66.99;99933.69;7397265;19;1739;-54
2023/07/02 02:52:04;;;;;;;;;;;;;;;24.11;67.02;99928.38;7399145;19;958;-55
2023/07/02 02:54:32;;;;;;;;;;;;;;;24.13;66.82;99931.72;7396777;19;1869;-54
2023/07/02 02:57:00;;;;;;;;;;;;;;;24.10;66.66;99927.53;7397325;19;1797;-55
2023/07/02 02:59:29;;;;;;;;;;;;;;;24.08;67.13;99936.88;7396485;19;1837;-55
2023/07/02 03:02:00;;;;;;;;;;;;;;;24.18;66.63;99934.69;7396364;19;1849;-56
2023/07/02 03:04:28;;;;;;;;;;;;;;;24.05;66.72;99932.66;7395252;19;1871;-54
2023/07/02 03:06:56;;;;;;;;;;;;;;;24.08;66.84;99935.00;7401683;19;1379;-55
2023/07/02 03:09:24;;;;;;;;;;;;;;;24.07;66.84;99938.69;7404279;19;1385;-55
2023/07/02 03:11:53;;;;;;;;;;;;;;;24.06;66.86;99930.81;7403403;19;1438;-54
2023/07/02 03:14:21;;;;;;;;;;;;;;;24.05;66.83;99935.34;7403636;19;1711;-54
2023/07/02 03:16:49;;;;;;;;;;;;;;;24.05;67.04;99945.31;7402821;19;1710;-54
2023/07/02 03:19:20;;;;;;;;;;;;;;;24.07;66.99;99944.09;7402979;19;1889;-54
2023/07/02 03:21:48;;;;;;;;;;;;;;;24.03;67.11;99942.81;7404912;19;1034;-54
2023/07/02 03:24:17;;;;;;;;;;;;;;;24.04;66.96;99939.09;7403205;19;1949;-58
2023/07/02 03:26:45;;;;;;;;;;;;;;;24.13;66.65;99956.88;7403134;19;1370;-55
2023/07/02 03:29:14;;;;;;;;;;;;;;;24.12;66.80;99944.38;7399757;19;1723;-55
2023/07/02 03:31:43;;;;;;;;;;;;;;;24.03;66.98;99948.22;7402532;19;1727;-54
2023/07/02 03:34:12;;;;;;;;;;;;;;;24.01;66.95;99952.97;7404391;19;1758;-55
2023/07/02 03:36:43;;;;;;;;;;;;;;;24.00;66.98;99943.19;7403718;19;1715;-54
2023/07/02 03:39:12;;;;;;;;;;;;;;;24.03;67.13;99929.31;7402393;19;1856;-54
2023/07/02 03:41:40;;;;;;;;;;;;;;;24.04;66.92;99944.50;7404219;19;1818;-54
2023/07/02 03:44:08;;;;;;;;;;;;;;;24.06;66.94;99947.03;7404697;19;1075;-54
2023/07/02 03:46:37;;;;;;;;;;;;;;;23.99;66.86;99952.31;7403945;19;1129;-54
2023/07/02 03:49:05;;;;;;;;;;;;;;;24.05;67.06;99962.38;7403908;19;2084;-54
2023/07/02 03:51:34;;;;;;;;;;;;;;;24.04;66.73;99960.69;7403925;19;1862;-54
2023/07/02 03:54:05;;;;;;;;;;;;;;;24.06;66.79;99964.06;7401619;19;1782;-54
2023/07/02 03:56:33;;;;;;;;;;;;;;;24.01;66.98;99950.25;7403076;19;1035;-54
2023/07/02 03:59:01;;;;;;;;;;;;;;;24.05;67.04;99964.22;7402489;19;1843;-54
2023/07/02 04:01:30;;;;;;;;;;;;;;;24.05;66.81;99973.16;7403129;19;1438;-54
2023/07/02 04:03:59;;;;;;;;;;;;;;;24.05;66.73;99965.06;7400377;19;2010;-54
2023/07/02 04:06:27;;;;;;;;;;;;;;;24.02;66.96;99968.16;7401588;19;1383;-54
2023/07/02 04:08:55;;;;;;;;;;;;;;;24.00;66.76;99968.34;7400956;19;1324;-54
2023/07/02 04:11:26;;;;;;;;;;;;;;;23.97;67.16;99970.56;7402763;19;1813;-55
2023/07/02 04:13:54;;;;;;;;;;;;;;;23.99;66.90;99969.38;7401642;19;1453;-54
2023/07/02 04:16:23;;;;;;;;;;;;;;;23.95;66.98;99959.13;7401297;19;1766;-54
2023/07/02 04:18:51;;;;;;;;;;;;;;;23.92;67.38;99957.66;7402454;19;1857;-55
2023/07/02 04:21:20;;;;;;;;;;;;;;;23.90;67.40;99964.25;7403382;19;1040;-54
2023/07/02 04:23:48;;;;;;;;;;;;;;;23.89;67.49;99957.16;7400329;19;2146;-55
2023/07/02 04:26:16;;;;;;;;;;;;;;;23.90;67.49;99969.66;7402838;19;1379;-55
2023/07/02 04:28:47;;;;;;;;;;;;;;;23.88;67.71;99969.84;7401722;19;1839;-55
2023/07/02 04:31:15;;;;;;;;;;;;;;;23.84;67.50;99970.41;7402204;19;1739;-54
2023/07/02 04:33:44;;;;;;;;;;;;;;;23.90;67.63;99978.59;7402412;19;1672;-54
2023/07/02 04:36:12;;;;;;;;;;;;;;;23.86;67.50;99968.38;7402606;19;1844;-54
2023/07/02 04:38:40;;;;;;;;;;;;;;;23.90;67.56;99967.78;7398517;19;1847;-54
2023/07/02 04:41:10;;;;;;;;;;;;;;;23.88;67.40;99967.16;7401572;19;1324;-54
2023/07/02 04:43:39;;;;;;;;;;;;;;;23.88;67.76;99966.31;7400059;19;1382;-54
2023/07/02 04:46:12;;;;;;;;;;;;;;;23.86;67.68;99960.25;7401435;19;1809;-55
2023/07/02 04:48:40;;;;;;;;;;;;;;;23.94;67.53;99969.09;7401811;19;1694;-55
2023/07/02 04:51:08;;;;;;;;;;;;;;;23.92;67.89;99973.00;7402807;19;1122;-54
2023/07/02 04:53:37;;;;;;;;;;;;;;;23.96;67.64;99971.63;7399050;19;1915;-55
2023/07/02 04:56:06;;;;;;;;;;;;;;;23.92;67.63;99981.94;7401707;19;1727;-54
2023/07/02 04:58:34;;;;;;;;;;;;;;;23.94;67.56;99985.28;7401365;19;1047;-55
2023/07/02 05:01:02;;;;;;;;;;;;;;;23.92;67.73;99971.16;7396895;19;1842;-55
2023/07/02 05:03:33;;;;;;;;;;;;;;;23.93;67.70;99971.97;7398405;19;2072;-55
2023/07/02 05:06:02;;;;;;;;;;;;;;;23.91;67.94;99976.72;7401765;19;1794;-55
2023/07/02 05:08:30;;;;;;;;;;;;;;;23.91;67.71;99976.72;7400845;19;1359;-55
2023/07/02 05:10:58;;;;;;;;;;;;;;;23.88;67.76;99971.72;7399856;19;1390;-54
2023/07/02 05:13:26;;;;;;;;;;;;;;;23.86;67.85;99963.78;7401089;19;1841;-54
2023/07/02 05:15:55;;;;;;;;;;;;;;;23.92;67.93;99964.91;7401386;19;1032;-54
2023/07/02 05:18:23;;;;;;;;;;;;;;;23.89;67.84;99985.00;7400252;19;1611;-54
2023/07/02 05:20:54;;;;;;;;;;;;;;;23.89;67.78;99978.78;7398378;19;1855;-54
2023/07/02 05:23:22;;;;;;;;;;;;;;;23.90;67.86;99972.38;7396787;19;1584;-54
2023/07/02 05:25:50;;;;;;;;;;;;;;;23.93;68.18;99980.06;7399851;19;1735;-55
2023/07/02 05:28:19;;;;;;;;;;;;;;;23.96;67.78;99975.16;7397128;19;1833;-54
2023/07/02 05:30:47;;;;;;;;;;;;;;;23.96;67.93;99966.22;7401422;19;958;-55
2023/07/02 05:33:15;;;;;;;;;;;;;;;23.99;67.60;99977.47;7400982;19;1101;-55
2023/07/02 05:35:45;;;;;;;;;;;;;;;24.01;67.58;99966.47;7398925;19;1862;-55
2023/07/02 05:38:18;;;;;;;;;;;;;;;23.99;67.85;99974.78;7398773;19;1469;-55
2023/07/02 05:40:46;;;;;;;;;;;;;;;24.02;67.60;99973.56;7397824;19;1862;-54
2023/07/02 05:43:14;;;;;;;;;;;;;;;24.05;67.75;99977.75;7399565;19;1652;-54
2023/07/02 05:45:43;;;;;;;;;;;;;;;24.06;67.67;99991.06;7399589;19;1715;-55
2023/07/02 05:48:11;;;;;;;;;;;;;;;24.07;67.68;99984.63;7398517;19;1825;-55
2023/07/02 05:50:39;;;;;;;;;;;;;;;24.08;67.72;99986.31;7399415;19;958;-54
2023/07/02 05:53:09;;;;;;;;;;;;;;;24.09;67.52;99973.63;7398289;19;1861;-54
2023/07/02 05:55:41;;;;;;;;;;;;;;;24.07;67.79;99983.78;7399232;19;1450;-54
2023/07/02 05:58:09;;;;;;;;;;;;;;;24.05;67.91;99986.66;7398450;19;1371;-55
2023/07/02 06:00:38;;;;;;;;;;;;;;;23.99;67.61;99976.63;7397553;19;1858;-55
2023/07/02 06:03:07;;;;;;;;;;;;;;;23.99;67.86;99968.53;7397925;19;1841;-54
2023/07/02 06:05:35;;;;;;;;;;;;;;;24.02;67.79;99962.75;7399734;19;1746;-55
2023/07/02 06:08:03;;;;;;;;;;;;;;;24.07;67.72;99986.50;7398818;19;1680;-54
2023/07/02 06:10:32;;;;;;;;;;;;;;;24.06;67.70;99961.34;7400582;19;948;-55
2023/07/02 06:13:03;;;;;;;;;;;;;;;24.07;67.97;99981.09;7399177;19;1859;-54
2023/07/02 06:15:31;;;;;;;;;;;;;;;24.08;67.54;99967.41;7399194;19;1446;-54
2023/07/02 06:17:59;;;;;;;;;;;;;;;24.08;67.51;99980.06;7398195;19;1600;-55
2023/07/02 06:20:27;;;;;;;;;;;;;;;24.09;67.50;99974.47;7397042;19;1858;-55
2023/07/02 06:22:56;;;;;;;;;;;;;;;24.13;67.47;99975.78;7398759;19;1711;-54
2023/07/02 06:25:24;;;;;;;;;;;;;;;24.12;67.41;99979.50;7399817;19;988;-54
2023/07/02 06:27:54;;;;;;;;;;;;;;;24.20;67.28;99981.25;7397562;19;1932;-54
2023/07/02 06:30:25;;;;;;;;;;;;;;;24.16;67.45;99988.91;7397311;19;1549;-54
2023/07/02 06:32:54;;;;;;;;;;;;;;;24.13;67.49;99975.78;7397544;19;1619;-54
2023/07/02 06:35:22;;;;;;;;;;;;;;;24.10;67.60;99991.53;7398508;19;1387;-54
2023/07/02 06:37:50;;;;;;;;;;;;;;;24.10;67.52;99980.72;7398190;19;1720;-55
2023/07/02 06:40:19;;;;;;;;;;;;;;;24.06;67.55;99974.84;7395431;19;1848;-54
2023/07/02 06:42:47;;;;;;;;;;;;;;;24.06;67.87;99972.16;7397082;19;1736;-55
2023/07/02 06:45:16;;;;;;;;;;;;;;;24.06;67.81;99980.25;7396434;19;1747;-54
2023/07/02 06:47:46;;;;;;;;;;;;;;;24.06;67.79;99979.44;7395849;19;1502;-54
2023/07/02 06:50:15;;;;;;;;;;;;;;;24.07;67.56;99975.69;7397454;19;2043;-54
2023/07/02 06:52:43;;;;;;;;;;;;;;;24.06;67.86;99961.34;7398640;19;1024;-55
2023/07/02 06:55:12;;;;;;;;;;;;;;;24.04;67.78;99984.19;7395823;19;1648;-55
2023/07/02 06:57:45;;;;;;;;;;;;;;;24.06;67.93;99980.25;7392707;19;1944;-55
2023/07/02 07:00:14;;;;;;;;;;;;;;;24.08;67.40;99980.91;7396894;19;1826;-54
2023/07/02 07:02:42;;;;;;;;;;;;;;;24.10;67.49;99981.56;7396477;19;1997;-54
2023/07/02 07:05:13;;;;;;;;;;;;;;;24.09;67.77;99984.44;7396746;19;1133;-54
2023/07/02 07:07:41;;;;;;;;;;;;;;;24.08;67.81;99985.47;7397904;19;1861;-54
2023/07/02 07:10:10;;;;;;;;;;;;;;;24.10;67.85;99986.13;7396440;19;1613;-54
2023/07/02 07:12:38;;;;;;;;;;;;;;;24.07;67.60;99983.78;7395521;19;1481;-55
2023/07/02 07:15:07;;;;;;;;;;;;;;;24.04;67.92;99976.91;7397214;19;1473;-55
2023/07/02 07:17:35;;;;;;;;;;;;;;;24.05;67.96;99975.88;7396768;19;1548;-55
2023/07/02 07:20:05;;;;;;;;;;;;;;;24.04;67.88;99987.72;7395358;19;1861;-54
2023/07/02 07:22:36;;;;;;;;;;;;;;;24.08;67.84;99990.88;7396491;19;1078;-55
2023/07/02 07:25:04;;;;;;;;;;;;;;;24.06;67.77;99987.53;7396825;19;1450;-55
2023/07/02 07:27:33;;;;;;;;;;;;;;;24.06;67.99;99993.75;7395469;19;1564;-54
2023/07/02 07:30:01;;;;;;;;;;;;;;;24.05;67.93;99989.38;7395404;19;1405;-54
2023/07/02 07:32:29;;;;;;;;;;;;;;;24.04;67.87;99990.41;7396311;19;2032;-54
2023/07/02 07:34:57;;;;;;;;;;;;;;;24.04;68.10;99982.31;7394710;19;1727;-54
2023/07/02 07:37:27;;;;;;;;;;;;;;;24.01;67.84;99988.94;7396982;19;1366;-54
2023/07/02 07:39:58;;;;;;;;;;;;;;;24.03;68.05;99988.72;7395513;19;1848;-54
2023/07/02 07:42:26;;;;;;;;;;;;;;;24.01;68.09;99988.06;7396784;19;1046;-54
2023/07/02 07:44:54;;;;;;;;;;;;;;;24.01;67.97;99996.19;7395817;19;1572;-54
2023/07/02 07:47:22;;;;;;;;;;;;;;;24.02;67.90;99996.00;7396285;19;1757;-55
2023/07/02 07:49:51;;;;;;;;;;;;;;;24.03;67.81;99991.44;7395446;19;1947;-55
2023/07/02 07:52:19;;;;;;;;;;;;;;;24.11;67.77;100004.00;7400205;19;963;-55
2023/07/02 07:54:47;;;;;;;;;;;;;;;24.08;67.61;99999.81;7402790;19;1552;-54
2023/07/02 07:57:18;;;;;;;;;;;;;;;24.06;67.56;99996.47;7402397;19;1378;-54
2023/07/02 07:59:46;;;;;;;;;;;;;;;24.11;67.58;99995.88;7403496;19;1842;-54
2023/07/02 08:02:15;;;;;;;;;;;;;;;24.09;67.64;100001.47;7402795;19;1726;-55
2023/07/02 08:04:43;;;;;;;;;;;;;;;24.13;67.51;100007.34;7400733;19;1917;-55
2023/07/02 08:07:11;;;;;;;;;;;;;;;24.12;67.55;100020.03;7402960;19;1828;-54
2023/07/02 08:09:40;;;;;;;;;;;;;;;24.10;67.71;100022.06;7403237;19;1730;-55
2023/07/02 08:12:08;;;;;;;;;;;;;;;24.05;67.87;100021.78;7401915;19;1837;-55
2023/07/02 08:14:39;;;;;;;;;;;;;;;24.04;67.64;100016.59;7401668;19;1715;-55
2023/07/02 08:17:07;;;;;;;;;;;;;;;24.09;67.58;100012.28;7401178;19;1391;-55
2023/07/02 08:19:36;;;;;;;;;;;;;;;24.06;67.67;100028.03;7401530;19;1738;-55
2023/07/02 08:22:04;;;;;;;;;;;;;;;24.00;68.03;100016.13;7401040;19;1826;-55
2023/07/02 08:24:33;;;;;;;;;;;;;;;24.00;68.14;100029.63;7401979;19;1896;-54
2023/07/02 08:27:02;;;;;;;;;;;;;;;23.99;67.78;100033.34;7402318;19;1821;-55
2023/07/02 08:29:30;;;;;;;;;;;;;;;23.98;67.81;100027.09;7401364;19;1690;-55
2023/07/02 08:32:01;;;;;;;;;;;;;;;24.01;67.77;100042.09;7402001;19;1473;-55
2023/07/02 08:34:30;;;;;;;;;;;;;;;24.02;67.99;100043.78;7402204;19;1674;-55
2023/07/02 08:36:58;;;;;;;;;;;;;;;24.01;67.77;100032.16;7401236;19;1374;-55
2023/07/02 08:39:26;;;;;;;;;;;;;;;24.04;67.64;100020.13;7401458;19;1880;-55
2023/07/02 08:41:54;;;;;;;;;;;;;;;24.04;67.91;100033.63;7399503;19;1849;-54
2023/07/02 08:44:23;;;;;;;;;;;;;;;24.02;67.71;100023.00;7400825;19;1557;-55
2023/07/02 08:46:55;;;;;;;;;;;;;;;24.02;67.63;100022.16;7395027;19;1485;-55
2023/07/02 08:49:26;;;;;;;;;;;;;;;24.01;67.64;100013.25;7397019;19;1441;-54
2023/07/02 08:51:54;;;;;;;;;;;;;;;24.04;67.82;100025.53;7399872;19;1487;-55
2023/07/02 08:54:22;;;;;;;;;;;;;;;24.02;67.72;100032.97;7395587;19;1512;-55
2023/07/02 08:56:51;;;;;;;;;;;;;;;24.04;67.69;100025.53;7396929;19;1742;-55
2023/07/02 08:59:19;;;;;;;;;;;;;;;24.02;67.57;100041.09;7395183;19;1473;-55
2023/07/02 09:01:48;;;;;;;;;;;;;;;24.01;67.73;100033.97;7393422;19;1821;-55
2023/07/02 09:04:26;;;;;;;;;;;;;;;24.04;67.83;100057.09;7393132;19;1355;-55
2023/07/02 09:07:06;;;;;;;;;;;;;;;24.02;67.94;100043.78;7396248;19;1465;-55
2023/07/02 09:09:34;;;;;;;;;;;;;;;24.06;67.77;100047.78;7396389;19;1774;-55
2023/07/02 09:12:02;;;;;;;;;;;;;;;24.04;67.64;100033.63;7395298;19;1422;-55
2023/07/02 09:14:32;;;;;;;;;;;;;;;24.05;67.69;100038.00;7396574;19;1714;-55
2023/07/02 09:17:04;;;;;;;;;;;;;;;24.06;67.65;100023.47;7396353;19;1818;-57
2023/07/02 09:19:35;;;;;;;;;;;;;;;24.10;67.76;100034.75;7397476;19;1726;-55
2023/07/02 09:22:04;;;;;;;;;;;;;;;24.08;67.59;100024.13;7399268;19;1841;-54
2023/07/02 09:24:33;;;;;;;;;;;;;;;24.07;67.78;100033.22;7399818;19;1928;-55
2023/07/02 09:27:02;;;;;;;;;;;;;;;24.05;67.78;100029.88;7399031;19;1356;-54
2023/07/02 09:29:31;;;;;;;;;;;;;;;24.05;67.74;100029.88;7399209;19;1461;-55
2023/07/02 09:32:00;;;;;;;;;;;;;;;24.04;67.78;100025.53;7398548;19;1738;-55
2023/07/02 09:34:31;;;;;;;;;;;;;;;24.01;67.76;100029.44;7400501;19;1029;-54
2023/07/02 09:37:04;;;;;;;;;;;;;;;24.01;67.77;100034.84;7397892;19;1837;-55
2023/07/02 09:39:34;;;;;;;;;;;;;;;23.96;67.96;100033.72;7398620;19;1941;-54
2023/07/02 09:42:03;;;;;;;;;;;;;;;23.99;67.81;100034.19;7396390;19;1849;-54
2023/07/02 09:44:31;;;;;;;;;;;;;;;23.99;67.88;100015.28;7397434;19;1402;-55
2023/07/02 09:47:03;;;;;;;;;;;;;;;24.02;67.80;100032.97;7400021;19;1684;-55
2023/07/02 09:49:34;;;;;;;;;;;;;;;24.02;67.73;100011.38;7398728;19;1496;-55
2023/07/02 09:52:05;;;;;;;;;;;;;;;24.01;67.79;100026.75;7399501;19;950;-55
2023/07/02 09:54:34;;;;;;;;;;;;;;;23.99;67.80;100027.94;7397589;19;2188;-55
2023/07/02 09:57:02;;;;;;;;;;;;;;;23.98;67.86;100045.19;7399395;19;950;-55
2023/07/02 09:59:31;;;;;;;;;;;;;;;23.95;67.95;100037.44;7399137;19;2085;-54
2023/07/02 10:02:00;;;;;;;;;;;;;;;23.96;68.18;100039.13;7396920;19;1862;-54
2023/07/02 10:04:28;;;;;;;;;;;;;;;23.98;67.83;100050.56;7395884;19;1498;-55
2023/07/02 10:06:57;;;;;;;;;;;;;;;23.97;68.23;100047.03;7397626;19;1980;-55
2023/07/02 10:09:39;;;;;;;;;;;;;;;23.93;67.91;100036.78;7397627;19;1339;-55
2023/07/02 10:12:20;;;;;;;;;;;;;;;23.97;67.80;100040.78;7397935;19;1746;-54
2023/07/02 10:14:52;;;;;;;;;;;;;;;23.98;68.02;100037.91;7394939;19;1458;-54
2023/07/02 10:17:28;;;;;;;;;;;;;;;23.97;67.89;100024.59;7396900;19;1856;-55
2023/07/02 10:19:57;;;;;;;;;;;;;;;23.97;68.14;100021.88;7396845;19;1743;-67
2023/07/02 10:22:25;;;;;;;;;;;;;;;23.95;68.19;100029.34;7395464;19;1842;-53
2023/07/02 10:24:59;;;;;;;;;;;;;;;23.95;67.97;100035.56;7397018;19;1953;-53
2023/07/02 10:27:37;;;;;;;;;;;;;;;23.98;68.15;100037.06;7396151;19;1624;-53
2023/07/02 10:30:06;;;;;;;;;;;;;;;24.05;68.10;100029.88;7397535;19;1485;-53
2023/07/02 10:32:35;;;;;;;;;;;;;;;24.00;67.89;100026.94;7397395;19;1185;-53
2023/07/02 10:35:05;;;;;;;;;;;;;;;24.05;67.91;100019.09;7397854;19;1395;-53
2023/07/02 10:37:39;;;;;;;;;;;;;;;24.04;67.65;100035.50;7397600;19;1941;-53
2023/07/02 10:40:12;;;;;;;;;;;;;;;24.06;67.94;100022.66;7396958;19;1508;-54
2023/07/02 10:42:50;;;;;;;;;;;;;;;24.01;68.02;100036.69;7394632;19;1843;-53
2023/07/02 10:45:19;;;;;;;;;;;;;;;24.05;67.76;100042.56;7396782;19;1576;-53
2023/07/02 10:47:47;;;;;;;;;;;;;;;24.01;67.85;100015.09;7397043;19;1046;-53
2023/07/02 10:50:17;;;;;;;;;;;;;;;23.98;68.23;100037.06;7397048;19;1841;-53
2023/07/02 10:52:45;;;;;;;;;;;;;;;23.94;67.96;100028.50;7396089;19;2004;-54
2023/07/02 10:55:18;;;;;;;;;;;;;;;23.92;68.22;100008.94;7396755;19;1857;-53
2023/07/02 10:57:46;;;;;;;;;;;;;;;23.92;68.08;100005.41;7396420;19;1873;-53
2023/07/02 11:00:15;;;;;;;;;;;;;;;23.96;68.00;100009.41;7396513;19;1490;-53
2023/07/02 11:02:44;;;;;;;;;;;;;;;24.01;68.32;100020.47;7393598;19;1847;-53
2023/07/02 11:05:13;;;;;;;;;;;;;;;23.94;67.96;100011.47;7393895;19;1824;-53
2023/07/02 11:07:41;;;;;;;;;;;;;;;23.94;68.17;100004.19;7396856;19;1817;-53
2023/07/02 11:10:11;;;;;;;;;;;;;;;23.94;67.99;100004.19;7396728;19;1056;-53
2023/07/02 11:12:42;;;;;;;;;;;;;;;23.99;68.03;100014.44;7397102;19;1451;-53
2023/07/02 11:15:10;;;;;;;;;;;;;;;23.97;67.93;100001.13;7396403;19;1866;-53
2023/07/02 11:17:40;;;;;;;;;;;;;;;23.95;67.92;99999.63;7395933;19;1774;-54
2023/07/02 11:20:09;;;;;;;;;;;;;;;23.99;67.69;99992.81;7395171;19;1372;-53
2023/07/02 11:22:38;;;;;;;;;;;;;;;24.00;67.91;100000.75;7390661;19;1870;-53
2023/07/02 11:25:13;;;;;;;;;;;;;;;23.99;67.85;99995.53;7396467;19;1486;-53
2023/07/02 11:27:44;;;;;;;;;;;;;;;24.01;67.87;99986.22;7400074;19;1604;-53
2023/07/02 11:30:14;;;;;;;;;;;;;;;24.03;68.05;99986.03;7399449;19;1320;-53
2023/07/02 11:32:52;;;;;;;;;;;;;;;24.05;67.74;99986.66;7402162;19;1105;-53
2023/07/02 11:35:21;;;;;;;;;;;;;;;24.06;67.88;99982.97;7404334;19;930;-53
2023/07/02 11:37:49;;;;;;;;;;;;;;;24.04;67.97;99992.28;7404034;19;1799;-53
2023/07/02 11:40:19;;;;;;;;;;;;;;;24.08;67.84;99986.31;7402997;19;1835;-53
2023/07/02 11:42:50;;;;;;;;;;;;;;;24.11;67.79;99993.19;7400690;19;1846;-53
2023/07/02 11:45:19;;;;;;;;;;;;;;;24.10;67.79;99986.97;7403121;19;2056;-53
2023/07/02 11:47:47;;;;;;;;;;;;;;;24.11;67.82;99988.63;7403641;19;1743;-53
2023/07/02 11:50:16;;;;;;;;;;;;;;;24.11;67.55;99988.63;7403682;19;1797;-53
2023/07/02 11:52:44;;;;;;;;;;;;;;;24.12;67.54;99982.19;7403359;19;957;-53
2023/07/02 11:55:12;;;;;;;;;;;;;;;24.12;67.84;99974.09;7402853;19;1596;-53
2023/07/02 11:57:41;;;;;;;;;;;;;;;24.13;67.47;99978.50;7402546;19;1803;-53
2023/07/02 12:00:12;;;;;;;;;;;;;;;24.12;67.52;99967.88;7398712;19;1940;-53
2023/07/02 12:02:40;;;;;;;;;;;;;;;24.12;67.65;99970.56;7401012;19;1846;-53
2023/07/02 12:05:09;;;;;;;;;;;;;;;24.08;67.99;99971.97;7401307;19;1046;-53
2023/07/02 12:07:37;;;;;;;;;;;;;;;24.07;67.68;99968.41;7402268;19;1612;-53
2023/07/02 12:10:06;;;;;;;;;;;;;;;24.05;67.99;99958.84;7401548;19;1853;-53
2023/07/02 12:12:35;;;;;;;;;;;;;;;24.04;67.81;99968.81;7400707;19;1948;-53
2023/07/02 12:15:03;;;;;;;;;;;;;;;24.06;67.89;99972.16;7401770;19;1374;-53
2023/07/02 12:17:34;;;;;;;;;;;;;;;24.08;68.04;99961.16;7402064;19;1659;-53
2023/07/02 12:20:03;;;;;;;;;;;;;;;24.07;67.86;99963.00;7400677;19;1517;-53
2023/07/02 12:22:31;;;;;;;;;;;;;;;24.05;68.05;99959.66;7400016;19;1834;-53
2023/07/02 12:24:59;;;;;;;;;;;;;;;24.09;67.85;99963.66;7398032;19;1529;-53
2023/07/02 12:27:28;;;;;;;;;;;;;;;24.08;67.81;99956.59;7401414;19;1272;-53
2023/07/02 12:29:56;;;;;;;;;;;;;;;24.05;68.14;99956.97;7402415;19;1813;-53
2023/07/02 12:32:24;;;;;;;;;;;;;;;23.99;68.10;99941.50;7401353;19;1038;-53
2023/07/02 12:34:55;;;;;;;;;;;;;;;23.97;68.16;99949.81;7399054;19;1525;-53
2023/07/02 12:37:23;;;;;;;;;;;;;;;24.01;67.92;99950.25;7399912;19;1705;-53
2023/07/02 12:39:51;;;;;;;;;;;;;;;24.05;68.07;99951.56;7401188;19;1208;-53
2023/07/02 12:42:20;;;;;;;;;;;;;;;24.04;67.95;99976.91;7400050;19;1842;-53
2023/07/02 12:44:48;;;;;;;;;;;;;;;24.02;67.72;99952.78;7398893;19;1453;-53
2023/07/02 12:47:16;;;;;;;;;;;;;;;24.04;68.09;99933.69;7397163;19;1660;-53
2023/07/02 12:49:45;;;;;;;;;;;;;;;24.08;67.88;99937.69;7396447;19;1327;-53
2023/07/02 12:52:15;;;;;;;;;;;;;;;24.09;67.84;99939.34;7402032;19;1062;-53
2023/07/02 12:54:44;;;;;;;;;;;;;;;24.10;67.83;99937.50;7400662;19;2019;-53
2023/07/02 12:57:12;;;;;;;;;;;;;;;24.11;67.79;99942.69;7401730;19;1353;-53
2023/07/02 12:59:40;;;;;;;;;;;;;;;24.11;67.63;99933.75;7400312;19;1642;-53
2023/07/02 13:02:09;;;;;;;;;;;;;;;24.07;67.62;99927.06;7398632;19;1933;-53
2023/07/02 13:04:37;;;;;;;;;;;;;;;24.06;67.88;99937.03;7397954;19;1880;-53